Time;durP1;ratioP1;P1;durP2;ratioP2;P2;SDS_P1;SDS_P2;PMS_P1;PMS_P2;Temp;Humidity;BMP_temperature;BMP_pressure;BME280_temperature;BME280_humidity;BME280_pressure;Samples;Min_cycle;Max_cycle;Signal;HPM_P1;HPM_P2
2022/01/25 00:10:25;;;;;;;20.43;18.20;;;3.50;99.90;;;;;;10543802;28;20231;-82
2022/01/25 00:16:07;;;;;;;21.30;18.67;;;3.50;99.90;;;;;;10543588;28;20210;-82
2022/01/25 00:26:34;;;;;;;21.20;19.00;;;3.60;99.90;;;;;;10469207;28;20216;-80
2022/01/25 00:31:38;;;;;;;19.73;17.57;;;3.60;99.90;;;;;;10527545;28;20208;-80
2022/01/25 00:36:41;;;;;;;22.20;17.53;;;3.50;99.90;;;;;;10540535;28;20732;-80
2022/01/25 00:41:43;;;;;;;21.87;18.60;;;3.50;99.90;;;;;;10525247;28;20228;-79
2022/01/25 00:46:45;;;;;;;19.97;17.50;;;3.40;99.90;;;;;;10544802;28;20200;-79
2022/01/25 00:52:05;;;;;;;19.10;17.20;;;3.30;99.90;;;;;;10541500;28;20230;-80
2022/01/25 00:57:08;;;;;;;21.50;18.70;;;3.20;99.90;;;;;;10551590;28;20215;-79
2022/01/25 01:02:14;;;;;;;19.90;17.90;;;3.20;99.90;;;;;;10540527;28;20216;-79
2022/01/25 01:07:21;;;;;;;19.03;17.13;;;3.30;99.90;;;;;;10528760;28;20307;-79
2022/01/25 01:12:46;;;;;;;21.77;19.40;;;3.30;99.90;;;;;;10551625;28;20206;-80
2022/01/25 01:29:10;;;;;;;20.93;18.73;;;3.30;99.90;;;;;;10547794;28;20222;-81
2022/01/25 01:40:13;;;;;;;22.50;18.43;;;3.30;99.90;;;;;;10516777;27;20531;-82
2022/01/25 01:45:30;;;;;;;21.27;18.43;;;3.30;99.90;;;;;;10497290;28;20203;-84
2022/01/25 01:50:33;;;;;;;21.70;19.40;;;3.30;99.90;;;;;;10499871;28;20223;-81
2022/01/25 01:55:37;;;;;;;20.80;18.60;;;3.30;99.90;;;;;;10500878;28;20208;-83
2022/01/25 02:00:43;;;;;;;21.47;19.17;;;3.30;99.90;;;;;;10481470;28;20716;-83
2022/01/25 02:05:45;;;;;;;20.37;18.13;;;3.30;99.90;;;;;;10494750;28;20197;-83
2022/01/25 02:10:48;;;;;;;21.50;19.20;;;3.30;99.90;;;;;;10496134;28;20243;-83
2022/01/25 02:15:51;;;;;;;24.80;20.80;;;3.30;99.90;;;;;;10496126;28;20214;-83
2022/01/25 02:26:16;;;;;;;20.87;18.87;;;3.20;99.90;;;;;;10487698;28;20208;-83
2022/01/25 02:31:19;;;;;;;22.93;20.30;;;3.20;99.90;;;;;;10475522;28;20235;-83
2022/01/25 02:36:27;;;;;;;22.97;20.00;;;3.20;99.90;;;;;;10476018;28;20225;-84
2022/01/25 02:41:29;;;;;;;21.10;18.57;;;3.20;99.90;;;;;;10492510;28;20248;-82
2022/01/25 02:51:52;;;;;;;25.80;21.33;;;3.10;99.90;;;;;;10466313;28;20200;-81
2022/01/25 02:56:55;;;;;;;25.53;22.50;;;3.10;99.90;;;;;;10449852;28;20221;-83
2022/01/25 03:01:57;;;;;;;26.37;23.57;;;3.10;99.90;;;;;;10451546;28;20209;-83
2022/01/25 03:07:00;;;;;;;26.33;23.17;;;3.10;99.90;;;;;;10451302;28;20272;-82
2022/01/25 03:12:05;;;;;;;27.23;22.77;;;3.00;99.90;;;;;;10454116;28;20208;-82
2022/01/25 03:17:11;;;;;;;26.10;23.30;;;3.00;99.90;;;;;;10478389;28;20329;-83
2022/01/25 03:22:18;;;;;;;27.63;24.67;;;3.00;99.90;;;;;;10450654;28;20212;-83
2022/01/25 03:27:20;;;;;;;28.03;23.97;;;3.00;99.90;;;;;;10460526;28;20217;-82
2022/01/25 03:32:22;;;;;;;25.20;22.67;;;2.90;99.90;;;;;;10445334;28;20201;-82
2022/01/25 03:37:26;;;;;;;26.43;23.70;;;2.90;99.90;;;;;;10458416;28;20287;-81
2022/01/25 03:42:28;;;;;;;25.90;23.20;;;3.00;99.90;;;;;;10440776;28;20209;-83
2022/01/25 03:47:43;;;;;;;26.00;23.20;;;2.90;99.90;;;;;;10457322;28;20221;-81
2022/01/25 03:52:46;;;;;;;28.00;23.73;;;2.80;99.90;;;;;;10457147;28;20209;-83
2022/01/25 03:57:48;;;;;;;26.83;23.10;;;2.80;99.90;;;;;;10459719;28;20225;-83
2022/01/25 04:02:55;;;;;;;27.03;24.33;;;2.80;99.90;;;;;;10440598;28;20201;-82
2022/01/25 04:07:58;;;;;;;25.97;22.70;;;2.80;99.90;;;;;;10458403;28;20701;-81
2022/01/25 04:13:00;;;;;;;28.40;24.50;;;2.70;99.90;;;;;;10441472;28;20204;-82
2022/01/25 04:18:19;;;;;;;27.57;23.13;;;2.70;99.90;;;;;;10457763;28;20221;-82
2022/01/25 04:28:42;;;;;;;27.60;24.57;;;2.80;99.90;;;;;;10442261;28;20217;-83
2022/01/25 04:33:56;;;;;;;28.80;23.33;;;2.80;99.90;;;;;;10459179;28;20197;-83
2022/01/25 04:49:46;;;;;;;25.57;22.53;;;2.90;99.90;;;;;;10457937;28;20220;-81
2022/01/25 04:54:51;;;;;;;24.23;21.70;;;2.80;99.90;;;;;;10442157;28;20288;-82
2022/01/25 05:00:01;;;;;;;25.23;22.40;;;2.80;99.90;;;;;;10458561;28;20283;-81
2022/01/25 05:05:09;;;;;;;25.77;22.90;;;2.70;99.90;;;;;;10443707;28;20251;-82
2022/01/25 05:10:13;;;;;;;25.40;22.80;;;2.70;99.90;;;;;;10460247;28;20221;-81
2022/01/25 05:15:23;;;;;;;24.87;22.27;;;2.70;99.90;;;;;;10443313;28;20250;-83
2022/01/25 05:25:42;;;;;;;27.63;24.13;;;2.60;99.90;;;;;;10451431;28;20485;-83
2022/01/25 05:30:44;;;;;;;30.90;26.57;;;2.60;99.90;;;;;;10463275;28;20224;-83
2022/01/25 05:35:47;;;;;;;33.17;28.07;;;2.60;99.90;;;;;;10464632;28;20205;-80
2022/01/25 05:40:58;;;;;;;27.57;24.57;;;2.60;99.90;;;;;;10460393;28;20275;-79
2022/01/25 05:46:11;;;;;;;26.77;23.97;;;2.70;99.90;;;;;;10458736;28;20201;-80
2022/01/25 05:51:13;;;;;;;29.67;24.57;;;2.70;99.90;;;;;;10454928;28;20221;-80
2022/01/25 05:56:17;;;;;;;27.47;23.87;;;2.70;99.90;;;;;;10461235;28;20219;-80
2022/01/25 06:01:19;;;;;;;32.27;25.97;;;2.60;99.90;;;;;;10457781;28;20225;-80
2022/01/25 06:06:21;;;;;;;29.30;26.10;;;2.50;99.90;;;;;;10451533;28;20205;-80
2022/01/25 06:11:25;;;;;;;31.87;26.67;;;2.60;99.90;;;;;;10440505;28;20211;-80
2022/01/25 06:16:28;;;;;;;27.23;22.13;;;2.60;99.90;;;;;;10456247;28;20619;-80
2022/01/25 06:21:30;;;;;;;30.03;26.77;;;2.60;99.90;;;;;;10459573;28;20712;-80
2022/01/25 06:26:34;;;;;;;28.77;25.10;;;2.60;99.90;;;;;;10468226;28;20623;-80
2022/01/25 06:31:36;;;;;;;28.27;25.30;;;2.60;99.90;;;;;;10470465;28;20217;-81
2022/01/25 06:36:38;;;;;;;28.50;24.80;;;2.60;99.90;;;;;;10478354;28;20235;-80
2022/01/25 06:41:41;;;;;;;26.37;23.50;;;2.60;99.90;;;;;;10467161;28;20221;-80
2022/01/25 06:46:45;;;;;;;28.97;24.37;;;2.60;99.90;;;;;;10469245;28;20200;-80
2022/01/25 06:51:49;;;;;;;25.73;22.87;;;2.60;99.90;;;;;;10464111;28;20208;-78
2022/01/25 06:56:53;;;;;;;26.80;23.77;;;2.60;99.90;;;;;;10461462;28;20205;-80
2022/01/25 07:01:55;;;;;;;28.87;25.60;;;2.60;99.90;;;;;;10461082;28;20610;-79
2022/01/25 07:06:57;;;;;;;41.60;32.50;;;2.60;99.90;;;;;;10461316;28;20673;-78
2022/01/25 07:12:01;;;;;;;29.93;26.23;;;2.60;99.90;;;;;;10463595;28;20631;-80
2022/01/25 07:17:03;;;;;;;28.73;24.67;;;2.60;99.90;;;;;;10462026;28;20252;-79
2022/01/25 07:22:06;;;;;;;27.90;24.60;;;2.60;99.90;;;;;;10461759;28;20212;-78
2022/01/25 07:27:10;;;;;;;31.30;25.20;;;2.60;99.90;;;;;;10461389;28;20220;-79
2022/01/25 07:32:12;;;;;;;31.07;25.80;;;2.60;99.90;;;;;;10462259;28;20204;-80
2022/01/25 07:37:14;;;;;;;29.43;25.60;;;2.60;99.90;;;;;;10445803;28;20725;-79
2022/01/25 07:42:18;;;;;;;29.23;25.67;;;2.60;99.90;;;;;;10461105;28;20689;-80
2022/01/25 07:47:28;;;;;;;29.23;24.57;;;2.70;99.90;;;;;;10459898;28;20635;-79
2022/01/25 07:52:30;;;;;;;29.30;24.77;;;2.70;99.90;;;;;;10459773;28;20205;-79
2022/01/25 07:57:34;;;;;;;31.13;24.67;;;2.70;99.90;;;;;;10454222;28;20221;-80
2022/01/25 08:02:36;;;;;;;29.17;24.93;;;2.70;99.90;;;;;;10461135;28;20204;-79
2022/01/25 08:07:38;;;;;;;35.20;26.60;;;2.70;99.90;;;;;;10460870;28;20224;-79
2022/01/25 08:12:41;;;;;;;28.17;23.27;;;2.80;99.90;;;;;;10461569;28;20568;-80
2022/01/25 08:17:46;;;;;;;29.20;24.43;;;2.80;99.90;;;;;;10444266;28;20221;-79
2022/01/25 08:22:49;;;;;;;30.67;24.33;;;2.90;99.90;;;;;;10464367;28;20193;-79
2022/01/25 08:27:53;;;;;;;27.87;24.63;;;3.00;99.90;;;;;;10459200;28;20224;-79
2022/01/25 08:32:55;;;;;;;30.03;25.30;;;3.00;99.90;;;;;;10459930;28;20235;-80
2022/01/25 08:37:57;;;;;;;26.17;23.33;;;3.00;99.90;;;;;;10458962;28;20558;-79
2022/01/25 08:43:01;;;;;;;29.80;25.77;;;3.00;99.90;;;;;;10459341;28;20208;-80
2022/01/25 08:48:03;;;;;;;31.93;26.10;;;3.10;99.90;;;;;;10459991;28;20287;-79
2022/01/25 08:53:07;;;;;;;32.53;25.60;;;3.20;99.90;;;;;;10460915;28;20205;-79
2022/01/25 08:58:11;;;;;;;32.47;26.70;;;3.20;99.90;;;;;;10466207;28;20289;-79
2022/01/25 09:03:13;;;;;;;30.83;26.63;;;3.30;99.90;;;;;;10466380;28;20201;-78
2022/01/25 09:08:20;;;;;;;33.93;27.47;;;3.40;99.90;;;;;;10456133;28;20245;-80
2022/01/25 09:13:24;;;;;;;30.63;25.60;;;3.60;99.90;;;;;;10457260;28;20573;-79
2022/01/25 09:18:26;;;;;;;38.20;33.60;;;3.70;99.90;;;;;;10456390;28;20245;-80
2022/01/25 09:23:28;;;;;;;42.20;34.50;;;3.80;99.90;;;;;;10452485;28;20204;-79
2022/01/25 09:28:32;;;;;;;43.10;38.40;;;4.00;99.90;;;;;;10455411;28;20280;-80
2022/01/25 09:33:34;;;;;;;42.90;36.60;;;4.10;99.90;;;;;;10453809;28;20201;-79
2022/01/25 09:38:36;;;;;;;38.97;33.80;;;4.20;99.90;;;;;;10455470;28;20229;-80
2022/01/25 09:43:39;;;;;;;36.73;32.43;;;4.40;99.90;;;;;;10455922;28;20232;-79
2022/01/25 09:48:41;;;;;;;39.37;33.03;;;4.50;99.90;;;;;;10457076;28;20453;-79
2022/01/25 09:53:44;;;;;;;41.80;35.23;;;4.50;99.90;;;;;;10457788;28;20201;-80
2022/01/25 09:58:47;;;;;;;39.93;35.20;;;4.60;99.90;;;;;;10461256;28;20224;-80
2022/01/25 10:03:49;;;;;;;39.07;32.27;;;4.70;99.90;;;;;;10464491;28;20572;-80
2022/01/25 10:08:52;;;;;;;35.80;31.80;;;4.70;99.90;;;;;;10465730;28;20228;-79
2022/01/25 10:13:58;;;;;;;36.80;32.77;;;4.80;99.90;;;;;;10446898;28;20208;-80
2022/01/25 10:19:01;;;;;;;34.03;29.73;;;4.80;99.90;;;;;;10463962;28;20228;-80
2022/01/25 10:24:08;;;;;;;31.50;27.90;;;4.90;99.90;;;;;;10466042;28;20221;-79
2022/01/25 10:29:13;;;;;;;40.70;29.90;;;4.90;99.90;;;;;;10462967;28;20260;-80
2022/01/25 10:34:17;;;;;;;33.90;28.23;;;5.00;99.90;;;;;;10464513;28;20201;-80
2022/01/25 10:39:22;;;;;;;30.93;26.90;;;5.00;99.90;;;;;;10440483;28;20260;-80
2022/01/25 10:44:25;;;;;;;34.87;27.93;;;5.00;99.90;;;;;;10462218;28;20662;-80
2022/01/25 10:49:27;;;;;;;31.23;27.10;;;5.10;99.90;;;;;;10458141;28;20217;-79
2022/01/25 10:54:29;;;;;;;32.73;27.87;;;5.10;99.90;;;;;;10465944;28;20410;-80
2022/01/25 10:59:35;;;;;;;31.10;27.40;;;5.10;99.90;;;;;;10468201;28;20229;-80
2022/01/25 11:04:40;;;;;;;30.20;27.20;;;5.20;99.90;;;;;;10463557;28;20201;-80
2022/01/25 11:09:46;;;;;;;32.40;28.17;;;5.20;99.90;;;;;;10460808;28;20219;-80
2022/01/25 11:14:54;;;;;;;32.07;28.60;;;5.30;99.90;;;;;;10464813;28;20189;-79
2022/01/25 11:19:57;;;;;;;30.90;27.50;;;5.30;99.90;;;;;;10459493;28;20253;-80
2022/01/25 11:25:04;;;;;;;30.33;27.13;;;5.30;99.90;;;;;;10460415;28;20620;-80
2022/01/25 11:30:12;;;;;;;31.83;27.47;;;5.40;99.90;;;;;;10442015;28;20241;-79
2022/01/25 11:35:18;;;;;;;32.73;29.20;;;5.40;99.90;;;;;;10459518;28;20684;-80
2022/01/25 11:40:30;;;;;;;32.17;27.73;;;5.50;99.90;;;;;;10461254;28;20716;-80
2022/01/25 11:45:36;;;;;;;33.77;30.17;;;5.50;99.90;;;;;;10461676;28;20205;-80
2022/01/25 11:50:40;;;;;;;35.53;30.57;;;5.60;99.90;;;;;;10460908;28;20217;-80
2022/01/25 11:55:46;;;;;;;32.83;29.33;;;5.60;99.90;;;;;;10461154;28;20204;-80
2022/01/25 12:00:52;;;;;;;36.33;31.53;;;5.60;99.90;;;;;;10461125;28;20225;-80
2022/01/25 12:06:04;;;;;;;37.00;32.03;;;5.70;99.90;;;;;;10467632;28;20212;-80
2022/01/25 12:11:35;;;;;;;33.27;29.67;;;5.70;99.90;;;;;;10461186;28;20228;-80
2022/01/25 12:16:43;;;;;;;35.30;31.43;;;5.70;99.90;;;;;;10452926;28;20199;-79
2022/01/25 12:22:04;;;;;;;37.63;30.43;;;5.70;99.90;;;;;;10458003;28;20474;-81
2022/01/25 12:27:14;;;;;;;35.20;30.70;;;5.80;99.90;;;;;;10441103;28;20204;-79
2022/01/25 12:32:22;;;;;;;38.57;33.00;;;5.80;99.90;;;;;;10458759;28;20284;-80
2022/01/25 12:37:55;;;;;;;35.77;30.50;;;5.80;99.90;;;;;;10457427;28;20278;-80
2022/01/25 12:42:59;;;;;;;36.80;32.80;;;5.90;99.90;;;;;;10459069;28;20201;-80
2022/01/25 12:48:06;;;;;;;39.33;32.63;;;5.90;99.90;;;;;;10458999;28;20227;-80
2022/01/25 12:53:10;;;;;;;36.00;31.50;;;6.00;99.90;;;;;;10444686;28;20287;-80
2022/01/25 12:58:13;;;;;;;36.10;32.30;;;6.00;99.90;;;;;;10443425;28;20218;-80
2022/01/25 13:03:20;;;;;;;34.67;30.90;;;6.00;99.90;;;;;;10457637;28;20621;-80
2022/01/25 13:08:28;;;;;;;36.80;32.70;;;6.00;99.90;;;;;;10457394;28;20209;-80
2022/01/25 13:13:45;;;;;;;37.97;32.20;;;6.00;99.90;;;;;;10453543;28;20268;-78
2022/01/25 13:18:50;;;;;;;47.47;34.33;;;6.00;99.90;;;;;;10454806;28;20217;-78
2022/01/25 13:23:54;;;;;;;37.37;31.17;;;6.10;99.90;;;;;;10454114;28;20209;-78
2022/01/25 13:30:38;;;;;;;33.50;29.00;;;6.10;99.90;;;;;;10437042;28;20217;-79
2022/01/25 13:34:24;;;;;;;39.30;32.43;;;6.10;99.90;;;;;;10454988;28;20225;-78
2022/01/25 13:39:28;;;;;;;35.03;29.00;;;6.10;99.90;;;;;;10455772;28;20224;-78
2022/01/25 13:49:51;;;;;;;38.30;32.93;;;6.20;99.90;;;;;;10454244;28;20297;-77
2022/01/25 13:54:54;;;;;;;37.90;30.80;;;6.20;99.90;;;;;;10454023;28;20197;-78
2022/01/25 13:59:56;;;;;;;37.60;31.83;;;6.20;99.90;;;;;;10453625;28;20236;-78
2022/01/25 14:05:02;;;;;;;38.80;32.33;;;6.20;99.90;;;;;;10437908;28;20201;-78
2022/01/25 14:10:09;;;;;;;41.17;33.73;;;6.20;99.90;;;;;;10456814;28;20223;-79
2022/01/25 14:26:00;;;;;;;42.27;35.60;;;6.20;99.90;;;;;;10456487;28;20292;-79
2022/01/25 14:31:02;;;;;;;42.80;35.23;;;6.10;99.90;;;;;;10450812;28;20247;-77
2022/01/25 14:36:10;;;;;;;42.80;35.70;;;6.10;99.90;;;;;;10456426;28;20216;-79
2022/01/25 14:41:15;;;;;;;46.37;35.17;;;6.00;99.90;;;;;;10454957;28;20768;-78
2022/01/25 14:46:21;;;;;;;43.60;35.57;;;5.90;99.90;;;;;;10462078;28;20197;-78
2022/01/25 14:51:33;;;;;;;45.90;37.33;;;5.90;99.90;;;;;;10464883;28;20309;-79
2022/01/25 14:56:37;;;;;;;50.40;38.70;;;5.80;99.90;;;;;;10464152;28;20201;-77
2022/01/25 15:01:39;;;;;;;44.87;35.13;;;5.80;99.90;;;;;;10446762;28;20284;-78
2022/01/25 15:06:42;;;;;;;47.47;36.80;;;5.80;99.90;;;;;;10465482;28;20649;-79
2022/01/25 15:11:45;;;;;;;46.17;37.50;;;5.70;99.90;;;;;;10446682;28;20673;-79
2022/01/25 15:16:49;;;;;;;45.43;36.83;;;5.60;99.90;;;;;;10463757;28;20283;-79
2022/01/25 15:21:52;;;;;;;55.87;40.60;;;5.50;99.90;;;;;;10465146;28;20229;-79
2022/01/25 15:26:57;;;;;;;47.87;36.97;;;5.50;99.90;;;;;;10464478;28;20209;-79
2022/01/25 15:31:59;;;;;;;49.70;37.70;;;5.40;99.90;;;;;;10464143;28;20283;-79
2022/01/25 15:37:03;;;;;;;51.10;36.80;;;5.30;99.90;;;;;;10466123;28;20232;-78
2022/01/25 15:42:05;;;;;;;51.97;38.50;;;5.30;99.90;;;;;;10465295;28;20307;-78
2022/01/25 15:47:09;;;;;;;52.90;38.93;;;5.30;99.90;;;;;;10463747;28;20693;-79
2022/01/25 15:52:13;;;;;;;57.43;42.80;;;5.20;99.90;;;;;;10453312;28;20255;-77
2022/01/25 15:57:15;;;;;;;55.97;41.77;;;5.20;99.90;;;;;;10445088;28;20707;-77
2022/01/25 16:02:17;;;;;;;57.03;41.00;;;5.20;99.90;;;;;;10447173;28;20213;-79
2022/01/25 16:07:21;;;;;;;59.37;41.27;;;5.20;99.90;;;;;;10444275;28;20224;-77
2022/01/25 16:12:25;;;;;;;58.70;43.70;;;5.10;99.90;;;;;;10443670;28;20748;-77
2022/01/25 16:17:27;;;;;;;57.20;41.83;;;5.20;99.90;;;;;;10441837;28;20263;-77
2022/01/25 16:22:30;;;;;;;56.80;42.70;;;5.20;99.90;;;;;;10442969;28;20221;-78
2022/01/25 16:27:33;;;;;;;67.37;47.40;;;5.20;99.90;;;;;;10448957;28;20225;-78
2022/01/25 16:32:41;;;;;;;58.20;44.80;;;5.10;99.90;;;;;;10424926;28;20296;-77
2022/01/25 16:37:45;;;;;;;66.03;46.00;;;4.90;99.90;;;;;;10444302;28;20225;-78
2022/01/25 16:42:47;;;;;;;57.90;43.07;;;4.80;99.90;;;;;;10441876;28;20200;-78
2022/01/25 16:47:50;;;;;;;61.03;45.80;;;4.70;99.90;;;;;;10442902;28;20224;-78
2022/01/25 16:52:54;;;;;;;61.10;43.40;;;4.70;99.90;;;;;;10446222;28;20197;-78
2022/01/25 16:57:56;;;;;;;61.30;45.73;;;4.70;99.90;;;;;;10446702;28;20300;-78
2022/01/25 17:02:59;;;;;;;64.87;46.77;;;4.70;99.90;;;;;;10474041;28;20571;-77
2022/01/25 17:08:05;;;;;;;65.20;44.07;;;4.80;99.90;;;;;;10441101;28;20225;-77
2022/01/25 17:13:07;;;;;;;62.27;46.10;;;4.80;99.90;;;;;;10443312;28;20197;-76
2022/01/25 17:18:09;;;;;;;65.03;44.60;;;4.90;99.90;;;;;;10442832;28;20671;-77
2022/01/25 17:23:12;;;;;;;64.77;44.60;;;4.80;99.90;;;;;;10443020;28;20256;-78
2022/01/25 17:28:15;;;;;;;57.93;44.00;;;4.80;99.90;;;;;;10444626;28;20209;-77
2022/01/25 17:33:17;;;;;;;63.43;45.23;;;4.70;99.90;;;;;;10440001;28;20201;-77
2022/01/25 17:38:20;;;;;;;64.33;46.07;;;4.60;99.90;;;;;;10450118;28;20253;-77
2022/01/25 17:43:22;;;;;;;71.00;47.17;;;4.60;99.90;;;;;;10448886;28;20239;-77
2022/01/25 17:48:24;;;;;;;66.27;46.33;;;4.60;99.90;;;;;;10442626;28;20209;-79
2022/01/25 17:53:28;;;;;;;67.17;48.37;;;4.60;99.90;;;;;;10442670;28;20198;-78
2022/01/25 17:58:30;;;;;;;65.13;46.80;;;4.70;99.90;;;;;;10444531;28;20212;-78
2022/01/25 18:03:32;;;;;;;65.43;46.93;;;4.80;99.90;;;;;;10482976;28;20208;-77
2022/01/25 18:08:36;;;;;;;66.10;47.37;;;4.90;99.90;;;;;;10452144;28;20507;-77
2022/01/25 18:13:39;;;;;;;61.17;45.00;;;4.90;99.90;;;;;;10446280;28;20213;-78
2022/01/25 18:18:41;;;;;;;58.87;41.83;;;4.90;99.90;;;;;;10452322;28;20263;-77
2022/01/25 18:23:48;;;;;;;59.53;41.80;;;4.90;99.90;;;;;;10462110;28;20201;-77
2022/01/25 18:28:50;;;;;;;58.13;42.20;;;4.90;99.90;;;;;;10462244;28;20299;-77
2022/01/25 18:33:52;;;;;;;56.37;42.90;;;4.90;99.90;;;;;;10462072;28;20608;-78
2022/01/25 18:39:03;;;;;;;60.23;43.50;;;4.80;99.90;;;;;;10461901;28;20312;-77
2022/01/25 18:44:06;;;;;;;64.80;43.00;;;4.70;99.90;;;;;;10461497;28;20201;-77
2022/01/25 18:49:08;;;;;;;59.40;40.77;;;4.70;99.90;;;;;;10461471;28;20217;-77
2022/01/25 18:54:13;;;;;;;59.03;42.43;;;4.70;99.90;;;;;;10461476;28;20205;-77
2022/01/25 18:59:15;;;;;;;53.47;39.80;;;4.60;99.90;;;;;;10460931;28;20221;-77
2022/01/25 19:04:17;;;;;;;58.03;41.13;;;4.60;99.90;;;;;;10462629;28;20669;-82
2022/01/25 19:09:21;;;;;;;60.77;41.73;;;4.60;99.90;;;;;;10463411;28;20693;-85
2022/01/25 19:14:23;;;;;;;60.23;44.20;;;4.60;99.90;;;;;;10459907;28;20203;-87
2022/01/25 19:19:26;;;;;;;59.60;44.27;;;4.70;99.90;;;;;;10458366;28;20217;-86
2022/01/25 19:24:30;;;;;;;60.13;42.10;;;4.60;99.90;;;;;;10403943;28;20561;-85
2022/01/25 19:29:32;;;;;;;62.00;41.90;;;4.60;99.90;;;;;;10440128;28;20217;-85
2022/01/25 19:34:35;;;;;;;57.67;41.77;;;4.50;99.90;;;;;;10458427;28;20228;-84
2022/01/25 19:39:45;;;;;;;62.63;44.30;;;4.40;99.90;;;;;;10439452;28;20257;-83
2022/01/25 19:44:47;;;;;;;64.00;44.80;;;4.30;99.90;;;;;;10432877;28;20214;-83
2022/01/25 19:49:50;;;;;;;62.40;43.67;;;4.30;99.90;;;;;;10437250;28;20649;-83
2022/01/25 19:54:53;;;;;;;67.43;44.90;;;4.30;99.90;;;;;;10445443;28;20233;-83
2022/01/25 19:59:56;;;;;;;63.93;43.30;;;4.40;99.90;;;;;;10438021;28;20225;-85
2022/01/25 20:04:58;;;;;;;63.77;42.83;;;4.40;99.90;;;;;;10438239;28;20296;-85
2022/01/25 20:10:05;;;;;;;59.73;41.00;;;4.30;99.90;;;;;;10429439;28;20782;-83
2022/01/25 20:15:08;;;;;;;59.50;41.37;;;4.20;99.90;;;;;;10453929;28;20224;-82
2022/01/25 20:20:20;;;;;;;61.03;42.40;;;4.10;99.90;;;;;;10448778;28;20237;-84
2022/01/25 20:25:34;;;;;;;62.63;43.50;;;4.10;99.90;;;;;;10466599;28;20194;-83
2022/01/25 20:30:44;;;;;;;65.90;46.53;;;4.00;99.90;;;;;;10443780;28;20225;-84
2022/01/25 20:35:47;;;;;;;62.20;43.80;;;4.00;99.90;;;;;;10470845;28;20216;-84
2022/01/25 20:40:50;;;;;;;65.77;46.67;;;4.00;99.90;;;;;;10477900;28;20308;-84
2022/01/25 20:45:54;;;;;;;74.50;48.20;;;4.00;99.90;;;;;;10440882;28;20193;-83
2022/01/25 20:50:58;;;;;;;76.30;48.90;;;4.00;99.90;;;;;;10441606;28;20279;-83
2022/01/25 20:56:02;;;;;;;75.30;49.90;;;4.00;99.90;;;;;;10457381;28;20315;-83
2022/01/25 21:01:09;;;;;;;74.77;48.57;;;4.10;99.90;;;;;;10459338;28;20217;-83
2022/01/25 21:11:33;;;;;;;56.40;42.27;;;4.20;99.90;;;;;;10427917;28;20317;-85
2022/01/25 21:16:37;;;;;;;55.73;40.37;;;4.30;99.90;;;;;;10456212;28;20692;-85
2022/01/25 21:21:39;;;;;;;56.07;40.70;;;4.20;99.90;;;;;;10422786;28;20218;-83
2022/01/25 21:26:44;;;;;;;56.03;40.23;;;4.10;99.90;;;;;;10429016;28;20186;-84
2022/01/25 21:31:48;;;;;;;57.40;42.17;;;4.10;99.90;;;;;;10420990;28;20225;-83
2022/01/25 21:36:50;;;;;;;61.07;43.60;;;4.10;99.90;;;;;;10440654;28;20247;-86
2022/01/25 21:41:55;;;;;;;60.30;43.90;;;4.20;99.90;;;;;;10452106;28;20303;-85
2022/01/25 21:47:00;;;;;;;61.27;42.67;;;4.20;99.90;;;;;;10451297;28;20272;-85
2022/01/25 21:52:03;;;;;;;60.60;44.00;;;4.20;99.90;;;;;;10446936;28;20212;-86
2022/01/25 21:57:06;;;;;;;52.33;38.60;;;4.20;99.90;;;;;;10443163;28;20197;-84
2022/01/25 22:02:09;;;;;;;43.43;33.90;;;4.30;99.90;;;;;;10442973;28;20259;-86
2022/01/25 22:07:14;;;;;;;41.80;33.60;;;4.20;99.90;;;;;;10453612;28;20729;-86
2022/01/25 22:12:30;;;;;;;41.70;34.10;;;4.20;99.90;;;;;;10453843;28;20200;-85
2022/01/25 22:17:32;;;;;;;36.90;31.23;;;4.20;99.90;;;;;;10458428;28;20225;-85
2022/01/25 22:22:34;;;;;;;35.73;30.03;;;4.20;99.90;;;;;;10442220;28;20320;-87
2022/01/25 22:27:40;;;;;;;39.53;31.77;;;4.20;99.90;;;;;;10444277;28;20231;-86
2022/01/25 22:32:44;;;;;;;36.63;31.43;;;4.20;99.90;;;;;;10442472;28;20193;-87
2022/01/25 22:37:49;;;;;;;37.80;31.63;;;4.20;99.90;;;;;;10443049;28;20239;-86
2022/01/25 22:42:53;;;;;;;41.43;32.17;;;4.20;99.90;;;;;;10454896;28;20209;-84
2022/01/25 22:48:05;;;;;;;36.77;30.60;;;4.10;99.90;;;;;;10444454;28;20221;-86
2022/01/25 22:53:07;;;;;;;41.37;34.03;;;4.00;99.90;;;;;;10449086;28;20608;-85
2022/01/25 22:58:11;;;;;;;36.57;31.00;;;4.00;99.90;;;;;;10457706;28;20283;-85
2022/01/25 23:03:14;;;;;;;45.73;36.00;;;4.00;99.90;;;;;;10458952;28;20623;-87
2022/01/25 23:08:16;;;;;;;42.70;34.47;;;4.00;99.90;;;;;;10456921;28;20227;-85
2022/01/25 23:18:46;;;;;;;43.63;35.03;;;4.00;99.90;;;;;;10432874;28;20700;-85
2022/01/25 23:23:49;;;;;;;47.30;35.63;;;4.10;99.90;;;;;;10448821;28;20215;-85
2022/01/25 23:28:56;;;;;;;45.93;36.97;;;4.10;99.90;;;;;;10429095;28;20489;-85
2022/01/25 23:39:24;;;;;;;48.57;37.60;;;4.20;99.90;;;;;;10404930;28;20316;-84
2022/01/25 23:44:34;;;;;;;44.13;35.80;;;4.20;99.90;;;;;;10430440;28;20208;-85
2022/01/25 23:49:46;;;;;;;53.33;39.57;;;4.30;99.90;;;;;;10460251;28;20689;-86
